Time;durP1;ratioP1;P1;durP2;ratioP2;P2;SDS_P1;SDS_P2;PMS_P1;PMS_P2;Temp;Humidity;BMP_temperature;BMP_pressure;BME280_temperature;BME280_humidity;BME280_pressure;Samples;Min_cycle;Max_cycle;Signal;HPM_P1;HPM_P2
2022/02/23 00:01:29;;;;;;;11.88;4.90;;;;;;;3.00;70.69;100769.81;5110953;28;20414;-76
2022/02/23 00:03:55;;;;;;;15.30;5.30;;;;;;;2.99;70.50;100773.38;5108795;28;20049;-75
2022/02/23 00:06:20;;;;;;;18.25;5.15;;;;;;;2.92;70.47;100769.31;5110811;28;20032;-75
2022/02/23 00:08:46;;;;;;;13.60;5.10;;;;;;;2.88;71.10;100770.41;5110949;28;20036;-75
2022/02/23 00:11:12;;;;;;;11.65;4.75;;;;;;;2.82;71.22;100771.59;5110994;28;20027;-75
2022/02/23 00:13:38;;;;;;;10.68;4.40;;;;;;;2.73;71.07;100768.50;5110609;28;20023;-76
2022/02/23 00:16:05;;;;;;;15.60;5.43;;;;;;;2.73;71.46;100779.09;5110722;28;20050;-75
2022/02/23 00:18:31;;;;;;;14.40;5.25;;;;;;;2.58;72.16;100763.97;5110969;28;20494;-75
2022/02/23 00:20:57;;;;;;;18.70;5.38;;;;;;;2.62;72.18;100765.53;5109625;28;20709;-75
2022/02/23 00:23:23;;;;;;;13.55;5.03;;;;;;;2.66;72.02;100775.91;5110163;28;20088;-75
2022/02/23 00:25:49;;;;;;;13.02;5.15;;;;;;;2.62;72.18;100768.19;5111267;28;20028;-75
2022/02/23 00:28:15;;;;;;;9.93;4.43;;;;;;;2.59;72.32;100763.03;5110024;28;20038;-75
2022/02/23 00:30:41;;;;;;;14.75;4.75;;;;;;;2.55;72.10;100761.47;5111064;28;20028;-75
2022/02/23 00:33:07;;;;;;;14.18;4.82;;;;;;;2.51;72.44;100771.34;5111148;28;20031;-74
2022/02/23 00:35:33;;;;;;;10.80;4.38;;;;;;;2.48;73.08;100768.00;5110529;28;20023;-75
2022/02/23 00:37:58;;;;;;;9.73;4.57;;;;;;;2.41;72.95;100761.28;5110711;28;20028;-75
2022/02/23 00:40:24;;;;;;;15.50;4.72;;;;;;;2.38;73.27;100769.38;5110151;28;20072;-75
2022/02/23 00:42:52;;;;;;;15.93;4.72;;;;;;;2.26;73.43;100750.47;5110208;28;20074;-76
2022/02/23 00:45:18;;;;;;;13.05;4.13;;;;;;;2.28;73.58;100753.03;5111028;28;20394;-75
2022/02/23 00:47:44;;;;;;;10.05;4.75;;;;;;;2.19;73.62;100743.75;5109962;28;20039;-75
2022/02/23 00:50:09;;;;;;;13.45;5.88;;;;;;;2.19;73.69;100750.81;5110074;28;20028;-75
2022/02/23 00:52:35;;;;;;;10.57;5.10;;;;;;;2.12;73.90;100729.09;5109930;28;20075;-75
2022/02/23 00:55:00;;;;;;;10.32;4.85;;;;;;;2.14;74.62;100743.13;5110345;28;20027;-75
2022/02/23 00:57:25;;;;;;;12.60;4.97;;;;;;;2.08;74.92;100748.69;5110583;28;20114;-75
2022/02/23 00:59:51;;;;;;;15.93;6.10;;;;;;;2.13;75.28;100753.78;5110160;28;20027;-69
2022/02/23 01:02:17;;;;;;;19.25;5.78;;;;;;;2.16;75.47;100751.00;5109146;28;20027;-75
2022/02/23 01:04:42;;;;;;;12.85;5.65;;;;;;;2.11;75.65;100748.56;5110190;28;20030;-75
2022/02/23 01:07:10;;;;;;;15.02;6.13;;;;;;;2.09;76.18;100739.81;5109893;28;20039;-75
2022/02/23 01:09:36;;;;;;;13.98;5.90;;;;;;;2.15;76.37;100741.31;5109430;28;20032;-75
2022/02/23 01:12:02;;;;;;;15.60;6.07;;;;;;;2.27;76.46;100749.56;5110036;28;20034;-75
2022/02/23 01:14:27;;;;;;;12.75;5.53;;;;;;;2.34;76.22;100752.75;5109146;28;20543;-69
2022/02/23 01:16:52;;;;;;;20.00;5.65;;;;;;;2.36;75.96;100740.31;5108591;28;20027;-69
2022/02/23 01:19:18;;;;;;;14.43;5.35;;;;;;;2.32;75.90;100720.22;5108455;28;20038;-69
2022/02/23 01:21:43;;;;;;;14.45;6.18;;;;;;;2.45;76.04;100731.91;5107200;28;20081;-69
2022/02/23 01:24:09;;;;;;;19.48;5.93;;;;;;;2.51;75.81;100728.16;5108449;28;20042;-69
2022/02/23 01:26:34;;;;;;;13.70;6.32;;;;;;;2.52;75.38;100730.72;5111354;28;20023;-69
2022/02/23 01:29:00;;;;;;;11.10;4.95;;;;;;;2.57;74.76;100730.50;5113238;28;20478;-69
2022/02/23 01:31:26;;;;;;;15.30;5.25;;;;;;;2.52;74.75;100709.53;5112324;28;20112;-69
2022/02/23 01:33:51;;;;;;;12.27;5.28;;;;;;;2.67;74.91;100729.94;5112597;28;20035;-69
2022/02/23 01:36:16;;;;;;;13.13;5.32;;;;;;;2.72;74.60;100735.03;5109869;28;20055;-69
2022/02/23 01:38:42;;;;;;;17.40;5.25;;;;;;;2.82;73.38;100736.28;5112215;28;20035;-69
2022/02/23 01:41:07;;;;;;;18.67;5.65;;;;;;;2.82;73.33;100736.28;5112566;28;20015;-69
2022/02/23 01:43:33;;;;;;;14.88;5.18;;;;;;;2.83;73.44;100738.84;5112609;28;20069;-69
2022/02/23 01:45:59;;;;;;;18.27;5.25;;;;;;;2.88;73.63;100747.44;5111929;28;20039;-69
2022/02/23 01:48:24;;;;;;;16.27;5.03;;;;;;;2.91;73.29;100735.84;5110914;28;20039;-69
2022/02/23 01:50:50;;;;;;;9.60;4.60;;;;;;;2.93;72.73;100734.81;5112052;28;20033;-69
2022/02/23 01:53:19;;;;;;;11.63;4.60;;;;;;;2.95;72.82;100732.97;5110596;28;20055;-69
2022/02/23 01:55:44;;;;;;;13.88;4.75;;;;;;;2.97;72.86;100731.06;5112354;28;20027;-69
2022/02/23 01:58:10;;;;;;;12.13;4.40;;;;;;;3.06;72.42;100746.50;5111947;28;20376;-69
2022/02/23 02:00:36;;;;;;;14.90;5.20;;;;;;;3.04;72.32;100748.41;5111816;28;20486;-69
2022/02/23 02:03:02;;;;;;;13.32;5.00;;;;;;;3.08;72.24;100752.59;5111254;28;20114;-69
2022/02/23 02:05:27;;;;;;;14.43;4.82;;;;;;;3.03;71.87;100738.72;5110340;28;20043;-69
2022/02/23 02:07:53;;;;;;;14.80;5.65;;;;;;;3.05;71.69;100736.84;5111891;28;20040;-69
2022/02/23 02:10:18;;;;;;;16.05;5.45;;;;;;;3.19;71.02;100750.25;5110505;28;20035;-69
2022/02/23 02:12:43;;;;;;;14.10;4.90;;;;;;;3.28;70.95;100768.34;5111813;28;20135;-69
2022/02/23 02:15:09;;;;;;;15.45;5.20;;;;;;;3.29;71.04;100755.97;5111861;28;20028;-69
2022/02/23 02:17:36;;;;;;;12.77;4.85;;;;;;;3.21;70.74;100739.56;5111646;28;20027;-68
2022/02/23 02:20:04;;;;;;;13.82;5.53;;;;;;;3.25;71.01;100751.72;5111647;28;20364;-69
2022/02/23 02:22:30;;;;;;;14.95;5.55;;;;;;;3.25;70.84;100747.28;5109865;28;20467;-69
2022/02/23 02:24:57;;;;;;;15.85;5.60;;;;;;;3.32;71.02;100758.47;5112341;28;20023;-75
2022/02/23 02:27:22;;;;;;;16.42;5.45;;;;;;;3.34;70.80;100756.56;5112778;28;20023;-76
2022/02/23 02:29:48;;;;;;;14.63;5.47;;;;;;;3.35;71.02;100763.59;5112633;28;20097;-76
2022/02/23 02:32:17;;;;;;;15.25;5.80;;;;;;;3.32;70.71;100753.16;5111287;28;20062;-75
2022/02/23 02:34:45;;;;;;;17.27;5.95;;;;;;;3.45;70.66;100759.53;5112619;28;20023;-75
2022/02/23 02:37:14;;;;;;;17.52;6.18;;;;;;;3.45;70.52;100756.88;5112365;27;20372;-75
2022/02/23 02:39:39;;;;;;;18.23;6.20;;;;;;;3.46;70.91;100750.63;5112544;28;20035;-75
2022/02/23 02:42:05;;;;;;;15.88;5.82;;;;;;;3.47;70.57;100755.88;5112673;28;20024;-75
2022/02/23 02:44:32;;;;;;;12.75;5.38;;;;;;;3.55;70.43;100760.78;5112245;28;20053;-76
2022/02/23 02:46:57;;;;;;;16.88;6.47;;;;;;;3.54;69.93;100757.25;5111595;28;20048;-80
2022/02/23 02:49:23;;;;;;;19.02;5.78;;;;;;;3.64;69.84;100769.09;5111259;28;20390;-75
2022/02/23 02:51:57;;;;;;;19.27;5.38;;;;;;;3.60;69.56;100759.59;5112111;28;20549;-77
2022/02/23 02:54:45;;;;;;;14.95;6.00;;;;;;;3.71;68.69;100749.25;5109857;28;20035;-73
2022/02/23 02:57:11;;;;;;;18.13;5.55;;;;;;;3.60;69.07;100742.81;5109941;28;20115;-72
2022/02/23 02:59:36;;;;;;;12.48;5.13;;;;;;;3.66;69.01;100742.50;5110832;28;20149;-70
2022/02/23 03:02:02;;;;;;;15.48;5.30;;;;;;;3.67;69.13;100741.53;5110413;28;20023;-70
2022/02/23 03:04:28;;;;;;;16.98;4.63;;;;;;;3.85;68.83;100760.03;5109424;28;20024;-69
2022/02/23 03:06:53;;;;;;;17.00;5.03;;;;;;;3.85;69.00;100751.19;5110826;28;20058;-69
2022/02/23 03:09:19;;;;;;;15.38;4.65;;;;;;;3.88;68.68;100743.06;5108878;28;20065;-69
2022/02/23 03:11:44;;;;;;;10.57;4.43;;;;;;;3.78;68.66;100732.06;5110311;28;20092;-69
2022/02/23 03:14:10;;;;;;;11.70;4.63;;;;;;;3.87;69.11;100754.63;5108661;28;20027;-78
2022/02/23 03:16:48;;;;;;;17.60;5.50;;;;;;;3.85;68.91;100744.09;5111840;28;20118;-78
2022/02/23 03:19:14;;;;;;;13.93;4.57;;;;;;;3.60;69.27;100719.81;5110673;28;20020;-77
2022/02/23 03:21:39;;;;;;;12.93;5.38;;;;;;;3.61;69.86;100718.03;5110857;28;20027;-76
2022/02/23 03:24:05;;;;;;;11.20;4.22;;;;;;;3.78;69.81;100755.94;5110296;28;20069;-77
2022/02/23 03:26:31;;;;;;;9.63;4.30;;;;;;;3.71;69.96;100741.31;5110851;28;20027;-77
2022/02/23 03:28:57;;;;;;;12.23;4.47;;;;;;;3.77;70.18;100750.75;5111156;28;20548;-78
2022/02/23 03:31:22;;;;;;;13.02;4.30;;;;;;;3.62;70.15;100735.66;5111265;28;20046;-77
2022/02/23 03:34:00;;;;;;;13.68;4.35;;;;;;;3.80;70.29;100763.84;5109270;28;20085;-77
2022/02/23 03:36:43;;;;;;;11.20;3.75;;;;;;;3.83;70.46;100756.56;5110405;28;20028;-78
2022/02/23 03:39:09;;;;;;;13.68;4.25;;;;;;;3.95;70.06;100766.53;5109434;28;20114;-79
2022/02/23 03:41:37;;;;;;;10.00;4.20;;;;;;;4.03;69.61;100768.78;5111069;28;20116;-77
2022/02/23 03:44:03;;;;;;;9.65;4.43;;;;;;;4.08;69.90;100780.00;5108545;28;20098;-77
2022/02/23 03:46:29;;;;;;;7.78;3.42;;;;;;;4.10;69.87;100778.13;5110422;28;20043;-80
2022/02/23 03:48:59;;;;;;;8.07;3.35;;;;;;;3.95;69.92;100752.41;5109097;28;20036;-76
2022/02/23 03:51:25;;;;;;;9.20;3.78;;;;;;;3.95;70.01;100755.06;5109510;28;20031;-79
2022/02/23 03:53:51;;;;;;;9.80;3.17;;;;;;;3.83;70.22;100740.66;5111007;28;20020;-76
2022/02/23 03:59:08;;;;;;;15.80;4.13;;;;;;;4.13;70.79;100791.25;5108360;28;20046;-77
2022/02/23 04:01:39;;;;;;;10.15;3.97;;;;;;;4.04;70.64;100765.19;5110416;28;20471;-78
2022/02/23 04:04:06;;;;;;;13.38;3.70;;;;;;;4.01;70.51;100768.00;5109310;28;20028;-75
2022/02/23 04:06:32;;;;;;;14.73;4.45;;;;;;;4.21;70.38;100795.19;5110679;28;20034;-75
2022/02/23 04:09:00;;;;;;;10.18;4.05;;;;;;;4.25;70.07;100794.06;5110493;28;20020;-75
2022/02/23 04:11:25;;;;;;;14.00;4.15;;;;;;;4.27;70.09;100796.66;5110682;28;20046;-75
2022/02/23 04:13:51;;;;;;;14.88;4.53;;;;;;;4.27;70.39;100796.66;5110706;28;20032;-75
2022/02/23 04:16:16;;;;;;;8.10;3.65;;;;;;;4.16;70.56;100775.97;5110444;28;20020;-75
2022/02/23 04:18:43;;;;;;;16.30;4.75;;;;;;;4.32;69.81;100779.50;5110481;28;20106;-75
2022/02/23 04:21:08;;;;;;;13.93;4.70;;;;;;;4.38;69.97;100789.81;5110686;28;20104;-75
2022/02/23 04:23:34;;;;;;;9.65;4.13;;;;;;;4.38;69.77;100789.81;5110089;28;20032;-69
2022/02/23 04:25:59;;;;;;;11.82;4.40;;;;;;;4.44;69.71;100785.94;5108111;28;20038;-69
2022/02/23 04:28:28;;;;;;;11.68;4.18;;;;;;;4.42;70.04;100793.16;5108941;28;20023;-69
2022/02/23 04:30:54;;;;;;;9.35;4.03;;;;;;;4.46;69.78;100794.69;5109440;28;20028;-69
2022/02/23 04:33:20;;;;;;;11.65;4.03;;;;;;;4.50;69.77;100790.94;5109526;28;20475;-69
2022/02/23 04:35:47;;;;;;;12.15;4.32;;;;;;;4.60;69.07;100789.47;5109453;28;20032;-68
2022/02/23 04:38:13;;;;;;;14.40;5.20;;;;;;;4.75;68.84;100786.78;5109362;28;20023;-69
2022/02/23 04:40:41;;;;;;;16.73;5.07;;;;;;;4.72;68.47;100789.66;5109763;28;20027;-68
2022/02/23 04:43:06;;;;;;;10.55;4.97;;;;;;;4.78;68.61;100791.09;5109493;28;20023;-68
2022/02/23 04:45:32;;;;;;;18.75;5.40;;;;;;;4.78;68.76;100794.59;5108876;28;20482;-68
2022/02/23 04:47:58;;;;;;;15.50;5.22;;;;;;;4.80;68.95;100799.81;5108457;28;20039;-75
2022/02/23 04:50:23;;;;;;;13.35;5.35;;;;;;;4.78;69.04;100791.94;5109741;28;20023;-75
2022/02/23 04:52:49;;;;;;;14.52;5.68;;;;;;;4.87;69.13;100795.88;5109969;28;20080;-75
2022/02/23 04:55:14;;;;;;;14.40;5.72;;;;;;;4.79;69.30;100803.44;5110173;28;20039;-75
2022/02/23 04:57:39;;;;;;;11.13;4.68;;;;;;;4.76;69.93;100808.91;5110313;28;20046;-75
2022/02/23 05:00:06;;;;;;;13.95;5.80;;;;;;;4.71;70.40;100806.53;5109740;28;20028;-75
2022/02/23 05:02:31;;;;;;;13.32;5.50;;;;;;;4.76;69.98;100814.22;5108642;28;20019;-68
2022/02/23 05:04:57;;;;;;;15.55;6.05;;;;;;;4.86;70.03;100817.25;5108749;28;20024;-69
2022/02/23 05:07:24;;;;;;;10.80;5.30;;;;;;;4.82;69.98;100815.69;5108890;28;20081;-69
2022/02/23 05:09:50;;;;;;;17.77;5.95;;;;;;;4.83;70.26;100812.94;5108831;28;20047;-69
2022/02/23 05:12:16;;;;;;;12.50;5.20;;;;;;;4.89;70.52;100823.22;5108280;28;20023;-69
2022/02/23 05:14:42;;;;;;;14.70;5.32;;;;;;;4.80;70.75;100814.94;5108636;28;20028;-69
2022/02/23 05:17:08;;;;;;;13.30;5.80;;;;;;;4.77;71.24;100810.63;5108372;28;20039;-69
2022/02/23 05:19:34;;;;;;;16.48;5.93;;;;;;;4.84;71.28;100822.66;5106785;28;20022;-69
2022/02/23 05:22:01;;;;;;;13.80;5.30;;;;;;;4.77;71.48;100799.16;5108598;28;20076;-69
2022/02/23 05:24:28;;;;;;;11.77;5.25;;;;;;;4.87;71.89;100818.94;5108438;28;20119;-69
2022/02/23 05:26:55;;;;;;;16.05;6.25;;;;;;;4.91;71.43;100816.03;5108406;28;20035;-69
2022/02/23 05:29:21;;;;;;;16.38;6.03;;;;;;;4.92;71.84;100816.88;5108139;28;20136;-69
2022/02/23 05:31:46;;;;;;;14.95;5.85;;;;;;;4.93;71.67;100815.94;5108498;28;20032;-69
2022/02/23 05:34:12;;;;;;;16.35;6.53;;;;;;;4.89;71.78;100817.91;5107047;28;20028;-69
2022/02/23 05:36:37;;;;;;;13.05;5.47;;;;;;;4.93;71.52;100822.09;5106721;28;20031;-69
2022/02/23 05:39:03;;;;;;;14.23;5.70;;;;;;;4.95;71.30;100824.69;5108807;28;20398;-69
2022/02/23 05:41:29;;;;;;;13.27;5.15;;;;;;;5.00;71.53;100838.56;5108752;28;20539;-69
2022/02/23 05:43:54;;;;;;;16.98;5.88;;;;;;;4.93;72.06;100829.25;5108856;28;20031;-70
2022/02/23 05:46:20;;;;;;;20.08;6.55;;;;;;;4.88;71.99;100828.63;5108507;28;20039;-70
2022/02/23 05:48:46;;;;;;;13.98;5.28;;;;;;;4.90;73.10;100843.53;5108572;28;20028;-70
2022/02/23 05:51:28;;;;;;;17.20;5.55;;;;;;;4.92;73.35;100846.09;5109038;28;20501;-69
2022/02/23 05:53:55;;;;;;;17.65;6.00;;;;;;;4.87;73.54;100846.38;5108732;28;20730;-69
2022/02/23 05:56:20;;;;;;;21.33;5.80;;;;;;;4.91;73.90;100847.94;5108852;28;20051;-69
2022/02/23 05:58:45;;;;;;;18.52;5.68;;;;;;;4.87;74.01;100838.38;5108513;28;20031;-69
2022/02/23 06:01:11;;;;;;;15.57;5.53;;;;;;;4.94;74.09;100858.38;5108544;28;20391;-69
2022/02/23 06:03:37;;;;;;;15.13;6.30;;;;;;;4.93;74.65;100855.81;5107120;28;20069;-69
2022/02/23 06:06:03;;;;;;;14.90;5.65;;;;;;;5.01;74.21;100866.84;5108639;28;20034;-70
2022/02/23 06:08:29;;;;;;;13.30;5.80;;;;;;;5.04;74.54;100867.56;5108566;28;20028;-70
2022/02/23 06:10:54;;;;;;;14.52;6.13;;;;;;;4.99;74.56;100869.59;5108479;28;20034;-69
2022/02/23 06:13:20;;;;;;;14.68;5.93;;;;;;;5.06;74.37;100862.16;5112186;28;20023;-77
2022/02/23 06:15:46;;;;;;;19.23;5.82;;;;;;;5.19;73.30;100879.13;5114203;28;20076;-76
2022/02/23 06:18:11;;;;;;;13.40;4.78;;;;;;;5.24;73.11;100877.03;5114015;28;20031;-76
2022/02/23 06:20:37;;;;;;;15.18;4.90;;;;;;;5.23;72.75;100876.22;5113943;28;20015;-76
2022/02/23 06:23:03;;;;;;;13.05;4.28;;;;;;;5.18;72.55;100862.31;5113826;27;20023;-76
2022/02/23 06:25:29;;;;;;;12.15;5.00;;;;;;;5.34;72.45;100886.22;5112337;28;20032;-75
2022/02/23 06:27:54;;;;;;;15.82;4.82;;;;;;;5.37;71.67;100891.34;5112361;27;20551;-76
2022/02/23 06:30:20;;;;;;;8.60;3.65;;;;;;;5.45;71.75;100895.28;5112094;28;20039;-75
2022/02/23 06:32:45;;;;;;;12.88;4.40;;;;;;;5.45;70.96;100900.59;5111136;28;20035;-75
2022/02/23 06:35:11;;;;;;;12.05;4.10;;;;;;;5.50;70.83;100903.88;5112258;28;20019;-75
2022/02/23 06:37:36;;;;;;;15.73;4.68;;;;;;;5.43;70.99;100888.34;5111133;27;20024;-74
2022/02/23 06:40:03;;;;;;;16.35;4.65;;;;;;;5.47;70.58;100896.06;5111913;28;20019;-75
2022/02/23 06:42:29;;;;;;;11.88;4.60;;;;;;;5.61;70.25;100905.91;5111237;28;20015;-75
2022/02/23 06:44:55;;;;;;;15.70;4.10;;;;;;;5.63;69.53;100915.50;5111456;28;20411;-75
2022/02/23 06:47:21;;;;;;;10.18;4.00;;;;;;;5.61;69.71;100909.41;5110399;28;20056;-74
2022/02/23 06:49:46;;;;;;;11.98;3.72;;;;;;;5.71;68.52;100923.91;5112544;28;20036;-76
2022/02/23 06:52:14;;;;;;;9.23;3.05;;;;;;;5.96;67.08;100926.88;5112503;28;20046;-76
2022/02/23 06:54:39;;;;;;;13.57;3.42;;;;;;;5.95;66.81;100925.16;5111243;28;20027;-75
2022/02/23 06:57:08;;;;;;;11.95;4.32;;;;;;;5.95;67.22;100924.31;5113198;28;20038;-76
2022/02/23 06:59:34;;;;;;;14.32;3.50;;;;;;;5.93;66.22;100918.22;5112739;28;20111;-77
2022/02/23 07:02:00;;;;;;;11.85;3.42;;;;;;;6.05;65.59;100930.78;5113142;28;20103;-76
2022/02/23 07:04:25;;;;;;;14.68;3.90;;;;;;;6.16;65.37;100934.53;5112596;28;20482;-76
2022/02/23 07:06:51;;;;;;;8.20;3.10;;;;;;;6.26;65.71;100937.50;5112549;28;20034;-76
2022/02/23 07:09:16;;;;;;;10.68;3.58;;;;;;;6.14;66.50;100923.13;5109692;28;20118;-76
2022/02/23 07:11:42;;;;;;;11.57;3.28;;;;;;;6.33;66.77;100934.38;5111281;28;20069;-76
2022/02/23 07:14:08;;;;;;;8.80;2.88;;;;;;;6.36;66.81;100930.69;5111191;28;20032;-76
2022/02/23 07:16:35;;;;;;;9.35;3.13;;;;;;;6.33;66.99;100944.19;5111877;28;20791;-76
2022/02/23 07:19:00;;;;;;;10.57;2.92;;;;;;;6.39;66.59;100947.31;5112107;28;20063;-76
2022/02/23 07:21:26;;;;;;;9.32;3.30;;;;;;;6.51;66.56;100924.38;5111938;28;20035;-76
2022/02/23 07:23:51;;;;;;;8.38;2.42;;;;;;;6.44;66.83;100931.91;5111192;28;20027;-76
2022/02/23 07:26:17;;;;;;;12.40;2.53;;;;;;;6.55;66.83;100928.59;5112080;28;20133;-75
2022/02/23 07:28:46;;;;;;;12.95;3.33;;;;;;;6.50;67.54;100931.53;5111491;28;20055;-76
2022/02/23 07:31:14;;;;;;;8.77;2.67;;;;;;;6.60;67.60;100937.16;5111559;28;20536;-76
2022/02/23 07:33:40;;;;;;;7.25;2.70;;;;;;;6.66;67.50;100932.31;5111780;28;20026;-76
2022/02/23 07:36:06;;;;;;;10.05;3.28;;;;;;;6.71;67.83;100937.38;5110392;27;20506;-70
2022/02/23 07:38:32;;;;;;;11.43;3.22;;;;;;;6.80;67.01;100928.78;5110117;28;20041;-69
2022/02/23 07:40:58;;;;;;;6.75;2.45;;;;;;;7.02;65.81;100928.31;5110378;28;20035;-70
2022/02/23 07:43:23;;;;;;;7.53;2.47;;;;;;;7.24;64.36;100937.47;5108476;28;20390;-69
2022/02/23 07:45:53;;;;;;;7.68;2.90;;;;;;;7.33;63.27;100922.69;5110116;28;20039;-69
2022/02/23 07:48:19;;;;;;;10.82;3.10;;;;;;;7.64;61.81;100931.25;5109976;28;20108;-69
2022/02/23 07:50:44;;;;;;;5.93;2.13;;;;;;;7.62;61.87;100913.63;5109916;28;20104;-69
2022/02/23 07:53:10;;;;;;;9.45;2.63;;;;;;;7.66;62.20;100921.34;5109897;28;20379;-69
2022/02/23 07:55:37;;;;;;;4.70;2.22;;;;;;;7.86;61.36;100923.53;5108532;28;20039;-69
2022/02/23 07:58:05;;;;;;;8.10;2.58;;;;;;;7.91;61.28;100928.56;5110039;28;20035;-69
2022/02/23 08:00:31;;;;;;;5.55;2.40;;;;;;;7.94;61.42;100915.00;5109696;28;20020;-70
2022/02/23 08:02:56;;;;;;;14.75;2.58;;;;;;;8.21;60.02;100932.69;5109738;28;20064;-69
2022/02/23 08:05:24;;;;;;;7.63;2.83;;;;;;;8.31;60.09;100932.94;5108327;28;20027;-69
2022/02/23 08:07:50;;;;;;;6.97;2.60;;;;;;;8.20;60.05;100922.13;5109813;28;20031;-76
2022/02/23 08:10:16;;;;;;;6.55;2.47;;;;;;;8.17;60.64;100936.53;5111359;28;20043;-76
2022/02/23 08:12:41;;;;;;;9.05;2.30;;;;;;;8.22;60.46;100941.63;5111319;28;20023;-74
2022/02/23 08:20:42;;;;;;;11.98;2.78;;;;;;;8.06;62.90;100944.41;5109423;28;20452;-75
2022/02/23 08:23:09;;;;;;;7.60;2.80;;;;;;;7.95;64.08;100952.31;5109567;28;20031;-75
2022/02/23 08:25:35;;;;;;;7.45;2.38;;;;;;;7.84;65.08;100949.47;5111730;28;20024;-75
2022/02/23 08:28:00;;;;;;;8.73;2.75;;;;;;;7.72;65.72;100930.75;5112199;28;20026;-76
2022/02/23 08:30:26;;;;;;;5.80;2.28;;;;;;;7.66;66.48;100948.03;5111015;28;20074;-76
2022/02/23 08:32:51;;;;;;;7.55;3.00;;;;;;;7.70;67.12;100965.56;5111444;28;20451;-76
2022/02/23 08:35:16;;;;;;;6.40;2.70;;;;;;;7.61;67.76;100947.47;5111102;27;20748;-76
2022/02/23 08:37:42;;;;;;;7.15;2.72;;;;;;;7.47;68.74;100939.53;5109491;28;20114;-76
2022/02/23 08:40:08;;;;;;;9.07;2.53;;;;;;;7.72;68.30;100952.09;5108654;28;20028;-76
2022/02/23 08:42:34;;;;;;;9.45;2.50;;;;;;;7.74;68.46;100945.69;5110862;28;20027;-76
2022/02/23 08:44:59;;;;;;;7.00;2.72;;;;;;;7.77;69.21;100952.69;5110513;28;20031;-76
2022/02/23 08:47:26;;;;;;;7.72;2.55;;;;;;;7.66;69.76;100948.03;5110790;28;20396;-77
2022/02/23 08:49:54;;;;;;;5.97;2.75;;;;;;;7.68;72.25;100945.28;5110483;28;20073;-77
2022/02/23 08:52:20;;;;;;;6.47;2.60;;;;;;;7.61;73.87;100954.63;5110264;28;20065;-75
2022/02/23 08:54:46;;;;;;;7.30;3.50;;;;;;;7.51;76.48;100953.53;5110008;28;20047;-74
2022/02/23 08:57:11;;;;;;;7.55;2.45;;;;;;;7.46;77.94;100952.97;5109873;28;20449;-74
2022/02/23 08:59:37;;;;;;;9.43;3.00;;;;;;;7.48;79.34;100964.41;5109515;28;20378;-74
2022/02/23 09:02:04;;;;;;;10.48;3.28;;;;;;;7.42;80.91;100971.00;5108420;28;20391;-74
2022/02/23 09:04:29;;;;;;;7.68;2.58;;;;;;;7.23;82.50;100956.25;5109405;28;20517;-74
2022/02/23 09:06:55;;;;;;;6.32;3.05;;;;;;;7.19;83.13;100962.75;5109490;28;20111;-74
2022/02/23 09:09:21;;;;;;;7.75;3.17;;;;;;;7.16;83.69;100979.78;5108265;28;20089;-73
2022/02/23 09:11:47;;;;;;;11.77;3.92;;;;;;;7.13;84.05;100981.81;5109539;28;20035;-75
2022/02/23 09:14:14;;;;;;;8.77;3.53;;;;;;;7.03;84.76;100977.03;5109558;28;20763;-74
2022/02/23 09:16:40;;;;;;;10.40;3.85;;;;;;;6.97;85.40;100979.25;5109376;28;20035;-75
2022/02/23 09:19:06;;;;;;;9.20;3.08;;;;;;;7.11;84.63;100976.56;5109204;28;20028;-75
2022/02/23 09:21:32;;;;;;;12.13;2.85;;;;;;;7.03;85.00;100994.00;5109062;28;20030;-75
2022/02/23 09:23:59;;;;;;;7.40;3.15;;;;;;;7.02;85.00;100986.97;5106632;28;20030;-75
2022/02/23 09:26:25;;;;;;;8.27;2.80;;;;;;;6.96;83.92;100973.06;5109285;28;20028;-76
2022/02/23 09:28:51;;;;;;;7.47;2.90;;;;;;;6.96;84.95;100982.84;5109457;28;20019;-77
2022/02/23 09:31:17;;;;;;;9.80;3.00;;;;;;;6.95;85.34;100989.16;5109408;28;20046;-76
2022/02/23 09:33:44;;;;;;;9.38;3.08;;;;;;;6.90;85.27;100984.09;5108844;28;20016;-76
2022/02/23 09:36:09;;;;;;;3.97;2.53;;;;;;;6.93;86.08;100997.25;5108154;28;20100;-76
2022/02/23 09:38:36;;;;;;;9.38;2.90;;;;;;;6.98;85.17;100992.50;5109242;28;20027;-76
2022/02/23 09:41:09;;;;;;;7.60;2.70;;;;;;;7.09;84.64;101001.63;5109491;28;20039;-76
2022/02/23 09:43:35;;;;;;;7.82;3.58;;;;;;;7.09;85.73;100980.28;5109245;28;20023;-77
2022/02/23 09:46:01;;;;;;;7.65;2.92;;;;;;;7.06;85.56;100983.97;5109662;28;20036;-76
2022/02/23 09:48:29;;;;;;;5.05;2.47;;;;;;;7.04;85.61;100978.75;5111644;28;20122;-76
2022/02/23 09:50:56;;;;;;;7.40;3.28;;;;;;;7.10;84.91;100979.31;5112913;28;20038;-77
2022/02/23 09:53:22;;;;;;;8.85;3.20;;;;;;;7.26;83.94;101002.28;5113292;27;20027;-77
2022/02/23 09:55:51;;;;;;;13.85;4.20;;;;;;;7.41;83.48;100995.13;5112445;28;20027;-76
2022/02/23 09:58:17;;;;;;;10.30;4.03;;;;;;;7.56;80.75;100991.44;5113473;28;20018;-77
2022/02/23 10:00:44;;;;;;;4.80;2.78;;;;;;;7.65;81.20;100996.19;5113536;28;20028;-76
2022/02/23 10:03:10;;;;;;;6.05;3.35;;;;;;;7.78;80.86;101002.44;5113652;28;20032;-76
2022/02/23 10:05:38;;;;;;;6.18;3.13;;;;;;;7.87;79.80;101005.34;5113460;28;20613;-77
2022/02/23 10:08:09;;;;;;;6.47;3.35;;;;;;;7.97;79.06;101009.13;5113645;28;20471;-77
2022/02/23 10:10:36;;;;;;;8.38;3.28;;;;;;;7.85;79.93;101009.09;5113175;28;20028;-76
2022/02/23 10:13:03;;;;;;;7.32;2.80;;;;;;;8.00;79.70;101010.75;5113046;28;20475;-77
2022/02/23 10:15:40;;;;;;;6.25;3.15;;;;;;;8.96;77.96;100998.72;5111257;28;20424;-77
2022/02/23 10:18:08;;;;;;;5.07;2.88;;;;;;;11.35;65.03;101000.03;5111007;28;20031;-77
2022/02/23 10:20:38;;;;;;;5.65;3.05;;;;;;;13.73;55.88;100992.91;5112942;28;20435;-77
2022/02/23 10:23:15;;;;;;;5.03;2.47;;;;;;;15.79;49.04;100971.25;5113941;28;20027;-77
2022/02/23 10:25:43;;;;;;;5.53;2.95;;;;;;;17.61;45.10;100962.19;5112956;28;20035;-77
2022/02/23 10:28:10;;;;;;;5.95;2.40;;;;;;;18.98;40.78;100944.16;5114177;28;20050;-77
2022/02/23 10:31:01;;;;;;;3.97;2.13;;;;;;;19.72;38.82;100950.03;5106102;28;20031;-77
2022/02/23 10:33:32;;;;;;;6.45;3.00;;;;;;;20.04;37.76;100953.44;5112195;28;20119;-77
2022/02/23 10:35:58;;;;;;;6.57;2.90;;;;;;;19.65;38.14;100939.03;5113421;28;20073;-77
2022/02/23 10:38:37;;;;;;;4.28;2.70;;;;;;;19.34;38.71;100942.72;5114945;28;20027;-77
2022/02/23 10:41:05;;;;;;;4.07;2.30;;;;;;;18.38;40.02;100942.88;5111960;28;20088;-78
2022/02/23 10:43:36;;;;;;;5.85;3.10;;;;;;;17.61;41.59;100916.09;5112398;28;20034;-78
2022/02/23 10:46:04;;;;;;;4.75;3.25;;;;;;;17.54;41.94;100937.56;5113190;28;20031;-78
2022/02/23 10:48:40;;;;;;;7.38;2.78;;;;;;;16.82;43.54;100949.88;5113638;28;20044;-78
2022/02/23 10:51:08;;;;;;;7.55;3.17;;;;;;;15.82;45.95;100948.47;5112448;28;20614;-77
2022/02/23 10:53:35;;;;;;;4.68;2.72;;;;;;;15.02;47.67;100940.16;5113640;28;20024;-77
2022/02/23 10:56:18;;;;;;;4.88;2.72;;;;;;;14.38;49.72;100944.59;5113513;28;20016;-76
2022/02/23 10:58:44;;;;;;;5.07;2.72;;;;;;;13.80;51.11;100937.44;5107175;28;20107;-76
2022/02/23 11:01:10;;;;;;;7.70;2.65;;;;;;;13.33;53.02;100933.69;5113942;28;20478;-77
2022/02/23 11:03:36;;;;;;;6.47;2.40;;;;;;;12.88;54.41;100926.09;5113549;28;20053;-77
2022/02/23 11:06:03;;;;;;;6.95;2.60;;;;;;;12.68;54.41;100930.53;5113460;28;20031;-76
2022/02/23 11:08:29;;;;;;;11.88;2.42;;;;;;;12.33;52.55;100927.31;5110913;28;20027;-78
2022/02/23 11:10:55;;;;;;;8.68;2.25;;;;;;;11.98;51.30;100920.53;5113305;28;20386;-76
2022/02/23 11:13:21;;;;;;;5.85;2.58;;;;;;;11.86;52.41;100943.91;5113067;28;20120;-78
2022/02/23 11:15:49;;;;;;;11.40;2.58;;;;;;;11.53;52.21;100934.09;5113399;28;20039;-77
2022/02/23 11:18:17;;;;;;;5.90;2.03;;;;;;;11.46;51.94;100949.00;5110324;28;20066;-79
2022/02/23 11:20:44;;;;;;;7.15;2.10;;;;;;;11.34;52.08;100960.75;5112886;28;20075;-80
2022/02/23 11:23:17;;;;;;;12.07;2.25;;;;;;;11.23;50.39;100962.59;5113198;28;20027;-78
2022/02/23 11:25:47;;;;;;;6.40;2.10;;;;;;;11.24;49.63;100970.53;5112240;28;20028;-78
2022/02/23 11:28:30;;;;;;;10.07;2.17;;;;;;;11.02;50.34;100953.53;5112169;28;20035;-78
2022/02/23 11:31:00;;;;;;;8.07;2.47;;;;;;;11.12;50.84;100963.44;5113397;28;20027;-78
2022/02/23 11:33:50;;;;;;;5.15;2.30;;;;;;;11.04;50.82;100956.97;5110075;28;20022;-78